sensor_id;sensor_type;location;lat;lon;timestamp;temperature;humidity
3312;DHT22;1668;49.648;8.570;2022-08-07T00:02:03;19.30;37.10
3312;DHT22;1668;49.648;8.570;2022-08-07T00:04:30;19.40;37.10
3312;DHT22;1668;49.648;8.570;2022-08-07T00:06:57;19.30;37.10
3312;DHT22;1668;49.648;8.570;2022-08-07T00:09:24;19.30;37.50
3312;DHT22;1668;49.648;8.570;2022-08-07T00:11:51;19.20;37.60
3312;DHT22;1668;49.648;8.570;2022-08-07T00:14:19;19.30;37.50
3312;DHT22;1668;49.648;8.570;2022-08-07T00:16:45;19.20;37.50
3312;DHT22;1668;49.648;8.570;2022-08-07T00:19:12;19.20;37.80
3312;DHT22;1668;49.648;8.570;2022-08-07T00:21:39;19.20;38.00
3312;DHT22;1668;49.648;8.570;2022-08-07T00:24:06;19.10;37.90
3312;DHT22;1668;49.648;8.570;2022-08-07T00:26:33;19.10;38.20
3312;DHT22;1668;49.648;8.570;2022-08-07T00:29:00;19.20;38.80
3312;DHT22;1668;49.648;8.570;2022-08-07T00:31:28;19.20;38.80
3312;DHT22;1668;49.648;8.570;2022-08-07T00:33:54;19.20;37.90
3312;DHT22;1668;49.648;8.570;2022-08-07T00:36:21;19.10;38.00
3312;DHT22;1668;49.648;8.570;2022-08-07T00:38:48;19.10;38.00
3312;DHT22;1668;49.648;8.570;2022-08-07T00:41:15;19.20;38.90
3312;DHT22;1668;49.648;8.570;2022-08-07T00:43:42;19.20;39.20
3312;DHT22;1668;49.648;8.570;2022-08-07T00:46:09;19.10;38.20
3312;DHT22;1668;49.648;8.570;2022-08-07T00:48:37;19.10;38.40
3312;DHT22;1668;49.648;8.570;2022-08-07T00:51:04;19.10;38.30
3312;DHT22;1668;49.648;8.570;2022-08-07T00:53:32;19.10;38.50
3312;DHT22;1668;49.648;8.570;2022-08-07T00:55:59;19.00;38.60
3312;DHT22;1668;49.648;8.570;2022-08-07T00:58:27;19.00;38.60
3312;DHT22;1668;49.648;8.570;2022-08-07T01:00:54;19.00;39.90
3312;DHT22;1668;49.648;8.570;2022-08-07T01:03:21;19.00;38.60
3312;DHT22;1668;49.648;8.570;2022-08-07T01:05:49;19.00;38.60
3312;DHT22;1668;49.648;8.570;2022-08-07T01:08:17;19.00;40.40
3312;DHT22;1668;49.648;8.570;2022-08-07T01:10:44;19.10;39.10
3312;DHT22;1668;49.648;8.570;2022-08-07T01:13:11;19.00;39.20
3312;DHT22;1668;49.648;8.570;2022-08-07T01:15:38;19.00;39.00
3312;DHT22;1668;49.648;8.570;2022-08-07T01:18:06;19.10;38.70
3312;DHT22;1668;49.648;8.570;2022-08-07T01:20:40;19.00;38.50
3312;DHT22;1668;49.648;8.570;2022-08-07T01:23:09;19.10;39.60
3312;DHT22;1668;49.648;8.570;2022-08-07T01:25:36;19.00;39.50
3312;DHT22;1668;49.648;8.570;2022-08-07T01:28:05;19.00;38.80
3312;DHT22;1668;49.648;8.570;2022-08-07T01:30:32;19.00;39.70
3312;DHT22;1668;49.648;8.570;2022-08-07T01:32:59;18.90;38.90
3312;DHT22;1668;49.648;8.570;2022-08-07T01:35:26;18.90;40.10
3312;DHT22;1668;49.648;8.570;2022-08-07T01:37:53;18.90;39.20
3312;DHT22;1668;49.648;8.570;2022-08-07T01:40:22;18.90;40.40
3312;DHT22;1668;49.648;8.570;2022-08-07T01:42:50;18.90;39.30
3312;DHT22;1668;49.648;8.570;2022-08-07T01:45:17;18.80;39.30
3312;DHT22;1668;49.648;8.570;2022-08-07T01:47:46;18.80;40.40
3312;DHT22;1668;49.648;8.570;2022-08-07T01:50:14;18.80;39.80
3312;DHT22;1668;49.648;8.570;2022-08-07T01:52:44;18.80;40.10
3312;DHT22;1668;49.648;8.570;2022-08-07T01:55:13;18.80;40.70
3312;DHT22;1668;49.648;8.570;2022-08-07T01:57:42;18.70;41.30
3312;DHT22;1668;49.648;8.570;2022-08-07T02:00:12;18.70;41.60
3312;DHT22;1668;49.648;8.570;2022-08-07T02:02:42;18.50;41.50
3312;DHT22;1668;49.648;8.570;2022-08-07T02:05:13;18.40;42.20
3312;DHT22;1668;49.648;8.570;2022-08-07T02:07:45;18.50;42.20
3312;DHT22;1668;49.648;8.570;2022-08-07T02:10:14;18.40;42.10
3312;DHT22;1668;49.648;8.570;2022-08-07T02:12:44;18.30;42.80
3312;DHT22;1668;49.648;8.570;2022-08-07T02:15:12;18.30;42.50
3312;DHT22;1668;49.648;8.570;2022-08-07T02:17:41;18.30;42.90
3312;DHT22;1668;49.648;8.570;2022-08-07T02:20:10;18.30;43.00
3312;DHT22;1668;49.648;8.570;2022-08-07T02:22:39;18.10;43.70
3312;DHT22;1668;49.648;8.570;2022-08-07T02:25:08;18.20;44.30
3312;DHT22;1668;49.648;8.570;2022-08-07T02:27:38;18.10;44.50
3312;DHT22;1668;49.648;8.570;2022-08-07T02:30:08;18.10;44.00
3312;DHT22;1668;49.648;8.570;2022-08-07T02:32:37;18.10;43.60
3312;DHT22;1668;49.648;8.570;2022-08-07T02:35:05;18.10;43.90
3312;DHT22;1668;49.648;8.570;2022-08-07T02:37:34;18.20;44.70
3312;DHT22;1668;49.648;8.570;2022-08-07T02:40:04;18.10;44.40
3312;DHT22;1668;49.648;8.570;2022-08-07T02:42:33;18.00;43.90
3312;DHT22;1668;49.648;8.570;2022-08-07T02:45:02;17.90;44.70
3312;DHT22;1668;49.648;8.570;2022-08-07T02:47:32;17.90;44.40
3312;DHT22;1668;49.648;8.570;2022-08-07T02:49:58;17.80;44.50
3312;DHT22;1668;49.648;8.570;2022-08-07T02:52:31;17.80;45.50
3312;DHT22;1668;49.648;8.570;2022-08-07T02:55:01;17.80;45.30
3312;DHT22;1668;49.648;8.570;2022-08-07T02:57:29;17.60;45.40
3312;DHT22;1668;49.648;8.570;2022-08-07T02:59:57;17.40;46.60
3312;DHT22;1668;49.648;8.570;2022-08-07T03:02:25;17.40;48.10
3312;DHT22;1668;49.648;8.570;2022-08-07T03:04:54;17.40;47.00
3312;DHT22;1668;49.648;8.570;2022-08-07T03:07:21;17.30;48.20
3312;DHT22;1668;49.648;8.570;2022-08-07T03:09:48;17.30;48.20
3312;DHT22;1668;49.648;8.570;2022-08-07T03:12:15;17.30;47.60
3312;DHT22;1668;49.648;8.570;2022-08-07T03:14:43;17.00;48.40
3312;DHT22;1668;49.648;8.570;2022-08-07T03:17:11;16.80;49.20
3312;DHT22;1668;49.648;8.570;2022-08-07T03:19:39;16.70;49.60
3312;DHT22;1668;49.648;8.570;2022-08-07T03:22:08;16.80;49.80
3312;DHT22;1668;49.648;8.570;2022-08-07T03:24:35;16.80;50.40
3312;DHT22;1668;49.648;8.570;2022-08-07T03:27:04;16.80;50.00
3312;DHT22;1668;49.648;8.570;2022-08-07T03:29:34;16.80;50.30
3312;DHT22;1668;49.648;8.570;2022-08-07T03:32:05;16.80;50.60
3312;DHT22;1668;49.648;8.570;2022-08-07T03:34:34;16.50;51.60
3312;DHT22;1668;49.648;8.570;2022-08-07T03:37:01;16.50;51.90
3312;DHT22;1668;49.648;8.570;2022-08-07T03:39:32;16.50;51.90
3312;DHT22;1668;49.648;8.570;2022-08-07T03:42:02;16.40;52.50
3312;DHT22;1668;49.648;8.570;2022-08-07T03:44:29;16.40;52.80
3312;DHT22;1668;49.648;8.570;2022-08-07T03:46:57;16.40;52.70
3312;DHT22;1668;49.648;8.570;2022-08-07T03:49:24;16.40;53.30
3312;DHT22;1668;49.648;8.570;2022-08-07T03:51:51;16.40;53.00
3312;DHT22;1668;49.648;8.570;2022-08-07T03:54:19;16.50;53.30
3312;DHT22;1668;49.648;8.570;2022-08-07T03:56:48;16.50;53.30
3312;DHT22;1668;49.648;8.570;2022-08-07T03:59:16;16.20;53.90
3312;DHT22;1668;49.648;8.570;2022-08-07T04:01:45;16.30;54.30
3312;DHT22;1668;49.648;8.570;2022-08-07T04:04:15;16.40;54.40
3312;DHT22;1668;49.648;8.570;2022-08-07T04:06:42;16.20;54.30
3312;DHT22;1668;49.648;8.570;2022-08-07T04:09:10;16.20;55.30
3312;DHT22;1668;49.648;8.570;2022-08-07T04:11:38;16.30;54.80
3312;DHT22;1668;49.648;8.570;2022-08-07T04:14:07;16.30;55.60
3312;DHT22;1668;49.648;8.570;2022-08-07T04:16:34;16.30;55.20
3312;DHT22;1668;49.648;8.570;2022-08-07T04:19:02;16.30;55.30
3312;DHT22;1668;49.648;8.570;2022-08-07T04:21:30;16.10;56.20
3312;DHT22;1668;49.648;8.570;2022-08-07T04:23:57;16.10;56.40
3312;DHT22;1668;49.648;8.570;2022-08-07T04:26:25;16.10;56.20
3312;DHT22;1668;49.648;8.570;2022-08-07T04:28:52;16.00;56.70
3312;DHT22;1668;49.648;8.570;2022-08-07T04:31:22;16.00;57.10
3312;DHT22;1668;49.648;8.570;2022-08-07T04:33:49;16.00;57.10
3312;DHT22;1668;49.648;8.570;2022-08-07T04:36:16;16.00;57.50
3312;DHT22;1668;49.648;8.570;2022-08-07T04:38:43;16.00;58.00
3312;DHT22;1668;49.648;8.570;2022-08-07T04:41:10;16.00;58.20
3312;DHT22;1668;49.648;8.570;2022-08-07T04:43:38;15.90;58.80
3312;DHT22;1668;49.648;8.570;2022-08-07T04:46:09;15.90;58.90
3312;DHT22;1668;49.648;8.570;2022-08-07T04:48:43;15.90;59.00
3312;DHT22;1668;49.648;8.570;2022-08-07T04:51:20;15.90;59.40
3312;DHT22;1668;49.648;8.570;2022-08-07T04:53:57;15.90;59.80
3312;DHT22;1668;49.648;8.570;2022-08-07T04:56:29;15.80;60.40
3312;DHT22;1668;49.648;8.570;2022-08-07T04:59:01;15.80;60.60
3312;DHT22;1668;49.648;8.570;2022-08-07T05:01:36;15.70;61.00
3312;DHT22;1668;49.648;8.570;2022-08-07T05:04:09;15.80;61.40
3312;DHT22;1668;49.648;8.570;2022-08-07T05:06:43;15.80;61.50
3312;DHT22;1668;49.648;8.570;2022-08-07T05:09:21;15.90;62.10
3312;DHT22;1668;49.648;8.570;2022-08-07T05:11:52;15.90;61.70
3312;DHT22;1668;49.648;8.570;2022-08-07T05:14:22;15.90;61.60
3312;DHT22;1668;49.648;8.570;2022-08-07T05:16:55;15.90;62.70
3312;DHT22;1668;49.648;8.570;2022-08-07T05:19:26;15.80;62.40
3312;DHT22;1668;49.648;8.570;2022-08-07T05:21:58;15.90;62.00
3312;DHT22;1668;49.648;8.570;2022-08-07T05:24:26;15.90;62.20
3312;DHT22;1668;49.648;8.570;2022-08-07T05:26:56;16.00;62.20
3312;DHT22;1668;49.648;8.570;2022-08-07T05:29:24;16.00;62.60
3312;DHT22;1668;49.648;8.570;2022-08-07T05:31:53;16.00;62.30
3312;DHT22;1668;49.648;8.570;2022-08-07T05:34:23;16.10;62.30
3312;DHT22;1668;49.648;8.570;2022-08-07T05:36:51;16.10;62.00
3312;DHT22;1668;49.648;8.570;2022-08-07T05:39:21;16.10;62.80
3312;DHT22;1668;49.648;8.570;2022-08-07T05:41:48;16.10;62.80
3312;DHT22;1668;49.648;8.570;2022-08-07T05:44:17;16.20;62.80
3312;DHT22;1668;49.648;8.570;2022-08-07T05:46:45;16.10;62.50
3312;DHT22;1668;49.648;8.570;2022-08-07T05:49:13;16.20;62.60
3312;DHT22;1668;49.648;8.570;2022-08-07T05:51:42;16.30;62.60
3312;DHT22;1668;49.648;8.570;2022-08-07T05:54:09;16.30;62.40
3312;DHT22;1668;49.648;8.570;2022-08-07T05:56:39;16.40;62.20
3312;DHT22;1668;49.648;8.570;2022-08-07T05:59:12;16.40;62.50
3312;DHT22;1668;49.648;8.570;2022-08-07T06:01:41;16.50;62.10
3312;DHT22;1668;49.648;8.570;2022-08-07T06:04:10;16.50;62.30
3312;DHT22;1668;49.648;8.570;2022-08-07T06:06:39;16.60;62.20
3312;DHT22;1668;49.648;8.570;2022-08-07T06:09:08;16.70;62.70
3312;DHT22;1668;49.648;8.570;2022-08-07T06:11:36;16.70;62.60
3312;DHT22;1668;49.648;8.570;2022-08-07T06:14:04;16.80;62.00
3312;DHT22;1668;49.648;8.570;2022-08-07T06:16:32;16.80;61.90
3312;DHT22;1668;49.648;8.570;2022-08-07T06:19:00;16.90;61.60
3312;DHT22;1668;49.648;8.570;2022-08-07T06:21:28;16.90;61.50
3312;DHT22;1668;49.648;8.570;2022-08-07T06:23:56;17.00;61.80
3312;DHT22;1668;49.648;8.570;2022-08-07T06:26:25;17.00;61.50
3312;DHT22;1668;49.648;8.570;2022-08-07T06:28:54;17.10;61.80
3312;DHT22;1668;49.648;8.570;2022-08-07T06:31:23;17.20;60.90
3312;DHT22;1668;49.648;8.570;2022-08-07T06:33:50;17.30;60.50
3312;DHT22;1668;49.648;8.570;2022-08-07T06:36:16;17.40;60.70
3312;DHT22;1668;49.648;8.570;2022-08-07T06:38:44;17.30;59.80
3312;DHT22;1668;49.648;8.570;2022-08-07T06:41:16;17.40;60.20
3312;DHT22;1668;49.648;8.570;2022-08-07T06:43:46;17.40;60.40
3312;DHT22;1668;49.648;8.570;2022-08-07T06:46:13;17.50;60.70
3312;DHT22;1668;49.648;8.570;2022-08-07T06:48:41;17.60;60.10
3312;DHT22;1668;49.648;8.570;2022-08-07T06:51:10;17.60;59.60
3312;DHT22;1668;49.648;8.570;2022-08-07T06:53:39;17.70;60.10
3312;DHT22;1668;49.648;8.570;2022-08-07T06:56:07;17.80;59.80
3312;DHT22;1668;49.648;8.570;2022-08-07T06:58:35;17.80;59.20
3312;DHT22;1668;49.648;8.570;2022-08-07T07:01:05;17.80;59.10
3312;DHT22;1668;49.648;8.570;2022-08-07T07:03:36;17.90;59.60
3312;DHT22;1668;49.648;8.570;2022-08-07T07:06:04;18.00;59.40
3312;DHT22;1668;49.648;8.570;2022-08-07T07:08:31;18.10;59.00
3312;DHT22;1668;49.648;8.570;2022-08-07T07:10:58;18.20;59.20
3312;DHT22;1668;49.648;8.570;2022-08-07T07:13:32;18.20;59.30
3312;DHT22;1668;49.648;8.570;2022-08-07T07:16:03;18.30;58.60
3312;DHT22;1668;49.648;8.570;2022-08-07T07:18:39;18.40;58.00
3312;DHT22;1668;49.648;8.570;2022-08-07T07:21:11;18.40;58.20
3312;DHT22;1668;49.648;8.570;2022-08-07T07:23:41;18.50;58.50
3312;DHT22;1668;49.648;8.570;2022-08-07T07:26:12;18.60;57.70
3312;DHT22;1668;49.648;8.570;2022-08-07T07:28:44;18.60;57.60
3312;DHT22;1668;49.648;8.570;2022-08-07T07:31:18;18.70;57.80
3312;DHT22;1668;49.648;8.570;2022-08-07T07:33:48;18.80;57.60
3312;DHT22;1668;49.648;8.570;2022-08-07T07:36:17;18.80;57.80
3312;DHT22;1668;49.648;8.570;2022-08-07T07:38:44;18.90;58.30
3312;DHT22;1668;49.648;8.570;2022-08-07T07:41:13;19.00;58.20
3312;DHT22;1668;49.648;8.570;2022-08-07T07:43:45;19.10;58.30
3312;DHT22;1668;49.648;8.570;2022-08-07T07:46:13;19.10;57.80
3312;DHT22;1668;49.648;8.570;2022-08-07T07:48:42;19.10;57.60
3312;DHT22;1668;49.648;8.570;2022-08-07T07:51:13;19.20;57.70
3312;DHT22;1668;49.648;8.570;2022-08-07T07:53:43;19.30;57.60
3312;DHT22;1668;49.648;8.570;2022-08-07T07:56:12;19.40;57.50
3312;DHT22;1668;49.648;8.570;2022-08-07T07:58:39;19.40;57.40
3312;DHT22;1668;49.648;8.570;2022-08-07T08:01:08;19.50;57.40
3312;DHT22;1668;49.648;8.570;2022-08-07T08:03:37;19.60;57.20
3312;DHT22;1668;49.648;8.570;2022-08-07T08:06:07;19.70;57.40
3312;DHT22;1668;49.648;8.570;2022-08-07T08:08:36;19.80;57.60
3312;DHT22;1668;49.648;8.570;2022-08-07T08:11:04;19.90;56.90
3312;DHT22;1668;49.648;8.570;2022-08-07T08:13:32;20.00;56.90
3312;DHT22;1668;49.648;8.570;2022-08-07T08:16:01;20.00;57.20
3312;DHT22;1668;49.648;8.570;2022-08-07T08:18:28;20.10;57.50
3312;DHT22;1668;49.648;8.570;2022-08-07T08:20:59;20.20;56.90
3312;DHT22;1668;49.648;8.570;2022-08-07T08:23:27;20.30;57.30
3312;DHT22;1668;49.648;8.570;2022-08-07T08:26:15;20.40;58.20
3312;DHT22;1668;49.648;8.570;2022-08-07T08:29:00;20.50;57.30
3312;DHT22;1668;49.648;8.570;2022-08-07T08:31:30;20.40;58.30
3312;DHT22;1668;49.648;8.570;2022-08-07T08:34:03;20.40;57.80
3312;DHT22;1668;49.648;8.570;2022-08-07T08:36:32;20.50;58.40
3312;DHT22;1668;49.648;8.570;2022-08-07T08:39:01;20.60;58.10
3312;DHT22;1668;49.648;8.570;2022-08-07T08:41:38;20.80;57.40
3312;DHT22;1668;49.648;8.570;2022-08-07T08:44:14;20.90;58.50
3312;DHT22;1668;49.648;8.570;2022-08-07T08:46:47;20.90;58.00
3312;DHT22;1668;49.648;8.570;2022-08-07T08:49:23;21.00;58.70
3312;DHT22;1668;49.648;8.570;2022-08-07T08:51:56;21.10;57.60
3312;DHT22;1668;49.648;8.570;2022-08-07T08:54:29;21.20;58.10
3312;DHT22;1668;49.648;8.570;2022-08-07T08:57:02;21.20;57.90
3312;DHT22;1668;49.648;8.570;2022-08-07T08:59:38;21.30;56.80
3312;DHT22;1668;49.648;8.570;2022-08-07T09:02:12;21.30;57.10
3312;DHT22;1668;49.648;8.570;2022-08-07T09:04:48;21.50;57.40
3312;DHT22;1668;49.648;8.570;2022-08-07T09:07:22;21.70;57.50
3312;DHT22;1668;49.648;8.570;2022-08-07T09:09:57;21.80;58.30
3312;DHT22;1668;49.648;8.570;2022-08-07T09:12:39;21.80;57.30
3312;DHT22;1668;49.648;8.570;2022-08-07T09:15:26;21.80;58.10
3312;DHT22;1668;49.648;8.570;2022-08-07T09:18:13;22.00;57.60
3312;DHT22;1668;49.648;8.570;2022-08-07T09:20:50;22.00;60.10
3312;DHT22;1668;49.648;8.570;2022-08-07T09:23:30;22.00;59.70
3312;DHT22;1668;49.648;8.570;2022-08-07T09:26:09;22.10;57.30
3312;DHT22;1668;49.648;8.570;2022-08-07T09:28:40;22.30;57.00
3312;DHT22;1668;49.648;8.570;2022-08-07T09:31:15;22.30;56.40
3312;DHT22;1668;49.648;8.570;2022-08-07T09:33:55;22.40;57.30
3312;DHT22;1668;49.648;8.570;2022-08-07T09:36:30;22.50;56.20
3312;DHT22;1668;49.648;8.570;2022-08-07T09:39:05;22.50;56.70
3312;DHT22;1668;49.648;8.570;2022-08-07T09:41:45;22.60;56.80
3312;DHT22;1668;49.648;8.570;2022-08-07T09:44:27;22.80;56.40
3312;DHT22;1668;49.648;8.570;2022-08-07T09:47:08;22.80;57.30
3312;DHT22;1668;49.648;8.570;2022-08-07T09:49:46;22.80;56.10
3312;DHT22;1668;49.648;8.570;2022-08-07T09:52:20;22.90;56.10
3312;DHT22;1668;49.648;8.570;2022-08-07T09:54:53;23.10;55.30
3312;DHT22;1668;49.648;8.570;2022-08-07T09:57:43;23.30;55.00
3312;DHT22;1668;49.648;8.570;2022-08-07T10:00:19;23.30;52.80
3312;DHT22;1668;49.648;8.570;2022-08-07T10:03:08;23.40;53.80
3312;DHT22;1668;49.648;8.570;2022-08-07T10:06:02;23.50;52.20
3312;DHT22;1668;49.648;8.570;2022-08-07T10:09:00;23.40;53.20
3312;DHT22;1668;49.648;8.570;2022-08-07T10:11:43;23.40;52.60
3312;DHT22;1668;49.648;8.570;2022-08-07T10:14:27;23.40;52.80
3312;DHT22;1668;49.648;8.570;2022-08-07T10:17:17;23.40;52.40
3312;DHT22;1668;49.648;8.570;2022-08-07T10:20:03;23.40;53.40
3312;DHT22;1668;49.648;8.570;2022-08-07T10:22:47;23.50;50.60
3312;DHT22;1668;49.648;8.570;2022-08-07T10:25:25;24.00;44.10
3312;DHT22;1668;49.648;8.570;2022-08-07T10:28:07;24.30;42.70
3312;DHT22;1668;49.648;8.570;2022-08-07T10:30:49;24.60;41.80
3312;DHT22;1668;49.648;8.570;2022-08-07T10:33:34;24.60;43.00
3312;DHT22;1668;49.648;8.570;2022-08-07T10:36:16;24.60;42.80
3312;DHT22;1668;49.648;8.570;2022-08-07T10:38:56;24.70;42.80
3312;DHT22;1668;49.648;8.570;2022-08-07T10:41:28;25.00;41.50
3312;DHT22;1668;49.648;8.570;2022-08-07T10:44:05;25.10;39.80
3312;DHT22;1668;49.648;8.570;2022-08-07T10:46:38;25.20;39.10
3312;DHT22;1668;49.648;8.570;2022-08-07T10:49:22;25.20;42.90
3312;DHT22;1668;49.648;8.570;2022-08-07T10:51:56;25.30;38.80
3312;DHT22;1668;49.648;8.570;2022-08-07T10:54:35;25.40;39.40
3312;DHT22;1668;49.648;8.570;2022-08-07T10:57:10;25.50;39.50
3312;DHT22;1668;49.648;8.570;2022-08-07T11:00:02;25.60;40.60
3312;DHT22;1668;49.648;8.570;2022-08-07T11:02:34;25.70;38.70
3312;DHT22;1668;49.648;8.570;2022-08-07T11:05:18;25.70;37.20
3312;DHT22;1668;49.648;8.570;2022-08-07T11:07:55;25.80;39.20
3312;DHT22;1668;49.648;8.570;2022-08-07T11:10:28;26.00;36.90
3312;DHT22;1668;49.648;8.570;2022-08-07T11:13:02;26.00;36.20
3312;DHT22;1668;49.648;8.570;2022-08-07T11:15:37;26.10;35.10
3312;DHT22;1668;49.648;8.570;2022-08-07T11:18:11;26.10;38.30
3312;DHT22;1668;49.648;8.570;2022-08-07T11:20:47;26.30;35.70
3312;DHT22;1668;49.648;8.570;2022-08-07T11:23:20;26.40;36.10
3312;DHT22;1668;49.648;8.570;2022-08-07T11:25:53;26.40;34.10
3312;DHT22;1668;49.648;8.570;2022-08-07T11:28:25;26.50;34.10
3312;DHT22;1668;49.648;8.570;2022-08-07T11:30:59;26.70;33.20
3312;DHT22;1668;49.648;8.570;2022-08-07T11:33:33;26.80;33.10
3312;DHT22;1668;49.648;8.570;2022-08-07T11:36:12;27.00;33.10
3312;DHT22;1668;49.648;8.570;2022-08-07T11:38:48;26.90;34.00
3312;DHT22;1668;49.648;8.570;2022-08-07T11:41:22;26.80;33.40
3312;DHT22;1668;49.648;8.570;2022-08-07T11:43:57;26.90;31.90
3312;DHT22;1668;49.648;8.570;2022-08-07T11:46:37;26.90;33.80
3312;DHT22;1668;49.648;8.570;2022-08-07T11:49:21;27.00;30.80
3312;DHT22;1668;49.648;8.570;2022-08-07T11:52:01;27.10;30.10
3312;DHT22;1668;49.648;8.570;2022-08-07T11:54:37;27.10;28.90
3312;DHT22;1668;49.648;8.570;2022-08-07T11:57:18;27.20;29.20
3312;DHT22;1668;49.648;8.570;2022-08-07T12:00:07;27.20;33.20
3312;DHT22;1668;49.648;8.570;2022-08-07T12:03:05;27.10;31.10
3312;DHT22;1668;49.648;8.570;2022-08-07T12:05:44;27.10;31.00
3312;DHT22;1668;49.648;8.570;2022-08-07T12:08:20;27.20;32.10
3312;DHT22;1668;49.648;8.570;2022-08-07T12:10:51;27.30;30.50
3312;DHT22;1668;49.648;8.570;2022-08-07T12:13:23;27.30;29.00
3312;DHT22;1668;49.648;8.570;2022-08-07T12:15:53;27.30;29.50
3312;DHT22;1668;49.648;8.570;2022-08-07T12:18:24;27.20;30.00
3312;DHT22;1668;49.648;8.570;2022-08-07T12:21:00;27.30;28.80
3312;DHT22;1668;49.648;8.570;2022-08-07T12:23:37;27.50;30.10
3312;DHT22;1668;49.648;8.570;2022-08-07T12:26:12;27.60;31.10
3312;DHT22;1668;49.648;8.570;2022-08-07T12:28:46;27.70;28.30
3312;DHT22;1668;49.648;8.570;2022-08-07T12:31:20;27.80;28.90
3312;DHT22;1668;49.648;8.570;2022-08-07T12:33:50;27.70;31.90
3312;DHT22;1668;49.648;8.570;2022-08-07T12:36:19;27.80;29.60
3312;DHT22;1668;49.648;8.570;2022-08-07T12:38:48;27.80;29.40
3312;DHT22;1668;49.648;8.570;2022-08-07T12:41:19;27.80;26.40
3312;DHT22;1668;49.648;8.570;2022-08-07T12:43:47;28.00;26.80
3312;DHT22;1668;49.648;8.570;2022-08-07T12:46:23;28.10;25.90
3312;DHT22;1668;49.648;8.570;2022-08-07T12:48:57;28.10;27.10
3312;DHT22;1668;49.648;8.570;2022-08-07T12:51:34;28.10;25.90
3312;DHT22;1668;49.648;8.570;2022-08-07T12:54:10;28.10;25.70
3312;DHT22;1668;49.648;8.570;2022-08-07T12:56:42;28.10;26.00
3312;DHT22;1668;49.648;8.570;2022-08-07T12:59:16;28.30;25.20
3312;DHT22;1668;49.648;8.570;2022-08-07T13:01:57;28.30;25.10
3312;DHT22;1668;49.648;8.570;2022-08-07T13:04:44;28.40;25.00
3312;DHT22;1668;49.648;8.570;2022-08-07T13:07:21;28.60;25.00
3312;DHT22;1668;49.648;8.570;2022-08-07T13:10:10;28.80;24.10
3312;DHT22;1668;49.648;8.570;2022-08-07T13:12:50;28.70;24.00
3312;DHT22;1668;49.648;8.570;2022-08-07T13:15:25;28.80;25.60
3312;DHT22;1668;49.648;8.570;2022-08-07T13:18:01;28.60;28.30
3312;DHT22;1668;49.648;8.570;2022-08-07T13:20:39;28.50;28.20
3312;DHT22;1668;49.648;8.570;2022-08-07T13:23:10;28.50;27.10
3312;DHT22;1668;49.648;8.570;2022-08-07T13:25:43;28.70;25.90
3312;DHT22;1668;49.648;8.570;2022-08-07T13:28:15;28.80;24.20
3312;DHT22;1668;49.648;8.570;2022-08-07T13:30:49;28.90;24.40
3312;DHT22;1668;49.648;8.570;2022-08-07T13:33:23;29.00;24.00
3312;DHT22;1668;49.648;8.570;2022-08-07T13:35:56;28.90;24.90
3312;DHT22;1668;49.648;8.570;2022-08-07T13:38:30;29.00;24.40
3312;DHT22;1668;49.648;8.570;2022-08-07T13:41:03;29.20;24.50
3312;DHT22;1668;49.648;8.570;2022-08-07T13:43:32;29.20;26.80
3312;DHT22;1668;49.648;8.570;2022-08-07T13:46:04;29.20;23.90
3312;DHT22;1668;49.648;8.570;2022-08-07T13:48:31;29.40;23.90
3312;DHT22;1668;49.648;8.570;2022-08-07T13:51:00;29.70;23.30
3312;DHT22;1668;49.648;8.570;2022-08-07T13:53:30;30.00;22.30
3312;DHT22;1668;49.648;8.570;2022-08-07T13:56:02;29.80;21.30
3312;DHT22;1668;49.648;8.570;2022-08-07T13:58:37;30.00;21.60
3312;DHT22;1668;49.648;8.570;2022-08-07T14:01:24;30.00;22.00
3312;DHT22;1668;49.648;8.570;2022-08-07T14:03:52;30.10;21.20
3312;DHT22;1668;49.648;8.570;2022-08-07T14:06:21;30.30;21.40
3312;DHT22;1668;49.648;8.570;2022-08-07T14:08:50;30.50;21.40
3312;DHT22;1668;49.648;8.570;2022-08-07T14:11:20;30.50;20.80
3312;DHT22;1668;49.648;8.570;2022-08-07T14:13:51;30.40;20.60
3312;DHT22;1668;49.648;8.570;2022-08-07T14:16:25;30.50;21.00
3312;DHT22;1668;49.648;8.570;2022-08-07T14:18:53;30.40;20.60
3312;DHT22;1668;49.648;8.570;2022-08-07T14:21:23;30.60;20.80
3312;DHT22;1668;49.648;8.570;2022-08-07T14:23:55;30.80;20.70
3312;DHT22;1668;49.648;8.570;2022-08-07T14:26:28;31.00;19.20
3312;DHT22;1668;49.648;8.570;2022-08-07T14:28:58;30.70;19.10
3312;DHT22;1668;49.648;8.570;2022-08-07T14:31:26;30.90;22.40
3312;DHT22;1668;49.648;8.570;2022-08-07T14:33:54;30.80;19.40
3312;DHT22;1668;49.648;8.570;2022-08-07T14:36:23;31.10;20.00
3312;DHT22;1668;49.648;8.570;2022-08-07T14:38:50;31.40;19.20
3312;DHT22;1668;49.648;8.570;2022-08-07T14:41:31;31.40;18.10
3312;DHT22;1668;49.648;8.570;2022-08-07T14:44:00;31.30;17.90
3312;DHT22;1668;49.648;8.570;2022-08-07T14:46:30;31.40;17.70
3312;DHT22;1668;49.648;8.570;2022-08-07T14:48:58;31.40;18.00
3312;DHT22;1668;49.648;8.570;2022-08-07T14:51:27;31.60;17.70
3312;DHT22;1668;49.648;8.570;2022-08-07T14:53:58;31.70;18.30
3312;DHT22;1668;49.648;8.570;2022-08-07T14:56:28;31.90;16.60
3312;DHT22;1668;49.648;8.570;2022-08-07T14:59:02;32.10;17.20
3312;DHT22;1668;49.648;8.570;2022-08-07T15:01:35;32.40;18.50
3312;DHT22;1668;49.648;8.570;2022-08-07T15:04:04;32.40;16.20
3312;DHT22;1668;49.648;8.570;2022-08-07T15:06:33;32.40;18.50
3312;DHT22;1668;49.648;8.570;2022-08-07T15:09:03;32.20;17.40
3312;DHT22;1668;49.648;8.570;2022-08-07T15:11:37;32.50;16.50
3312;DHT22;1668;49.648;8.570;2022-08-07T15:14:07;32.70;16.20
3312;DHT22;1668;49.648;8.570;2022-08-07T15:16:41;33.00;15.40
3312;DHT22;1668;49.648;8.570;2022-08-07T15:19:13;33.20;16.70
3312;DHT22;1668;49.648;8.570;2022-08-07T15:21:42;33.40;15.50
3312;DHT22;1668;49.648;8.570;2022-08-07T15:24:12;33.10;14.40
3312;DHT22;1668;49.648;8.570;2022-08-07T15:26:43;33.10;15.20
3312;DHT22;1668;49.648;8.570;2022-08-07T15:29:14;33.20;15.70
3312;DHT22;1668;49.648;8.570;2022-08-07T15:31:44;33.20;14.80
3312;DHT22;1668;49.648;8.570;2022-08-07T15:34:13;32.80;14.50
3312;DHT22;1668;49.648;8.570;2022-08-07T15:36:40;32.40;14.40
3312;DHT22;1668;49.648;8.570;2022-08-07T15:39:08;32.50;14.20
3312;DHT22;1668;49.648;8.570;2022-08-07T15:41:38;32.60;14.70
3312;DHT22;1668;49.648;8.570;2022-08-07T15:44:22;33.20;16.70
3312;DHT22;1668;49.648;8.570;2022-08-07T15:46:56;33.50;14.10
3312;DHT22;1668;49.648;8.570;2022-08-07T15:49:28;33.50;13.80
3312;DHT22;1668;49.648;8.570;2022-08-07T15:52:18;33.40;13.10
3312;DHT22;1668;49.648;8.570;2022-08-07T15:55:07;33.40;12.30
3312;DHT22;1668;49.648;8.570;2022-08-07T15:57:54;33.50;12.00
3312;DHT22;1668;49.648;8.570;2022-08-07T16:00:44;33.20;12.40
3312;DHT22;1668;49.648;8.570;2022-08-07T16:03:21;33.70;12.90
3312;DHT22;1668;49.648;8.570;2022-08-07T16:05:50;33.50;12.10
3312;DHT22;1668;49.648;8.570;2022-08-07T16:08:20;33.60;12.80
3312;DHT22;1668;49.648;8.570;2022-08-07T16:10:53;33.50;12.10
3312;DHT22;1668;49.648;8.570;2022-08-07T16:13:53;33.60;12.10
3312;DHT22;1668;49.648;8.570;2022-08-07T16:16:45;34.30;13.70
3312;DHT22;1668;49.648;8.570;2022-08-07T16:19:27;35.00;12.90
3312;DHT22;1668;49.648;8.570;2022-08-07T16:22:03;34.40;13.20
3312;DHT22;1668;49.648;8.570;2022-08-07T16:24:36;34.10;11.40
3312;DHT22;1668;49.648;8.570;2022-08-07T16:27:19;34.20;12.90
3312;DHT22;1668;49.648;8.570;2022-08-07T16:30:03;34.20;11.40
3312;DHT22;1668;49.648;8.570;2022-08-07T16:32:36;34.20;10.80
3312;DHT22;1668;49.648;8.570;2022-08-07T16:35:13;34.40;12.20